Terminal Aerodrome Forecast
Issued by NWS

Home | Current Version | Previous Version | Graphics & Text | Print | Product List | Glossary On
Versions: 1 2 3 4 5 6 7 8 9 10 11 12 13 14 15 16 17 18 19 20 21 22 23 24 25 26 27 28 29 30 31 32
000
FTUS43 KLOT 312320
TAFMDW
TAF
KMDW 312320Z 0100/0124 20005KT P6SM FEW040
     FM010100 16005KT P6SM FEW040
     FM010600 19004KT 6SM BR FEW030
     FM010900 20003KT 4SM BR SCT030
     FM011300 22009KT P6SM SCT030
     FM011900 20012KT P6SM SCT030 BKN250=

USA.gov is the U.S. government's official web portal to all federal, state and local government web resources and services.